Time;durP1;ratioP1;P1;durP2;ratioP2;P2;SDS_P1;SDS_P2;PMS_P1;PMS_P2;Temp;Humidity;BMP_temperature;BMP_pressure;BME280_temperature;BME280_humidity;BME280_pressure;Samples;Min_cycle;Max_cycle;Signal;HPM_P1;HPM_P2
2021/09/07 00:00:37;;;;;;;11.88;10.63;;;15.60;99.90;;;;;;5074327;28;20017;-74
2021/09/07 00:03:02;;;;;;;10.90;9.85;;;15.60;99.90;;;;;;5064524;28;20021;-74
2021/09/07 00:05:28;;;;;;;14.20;9.73;;;15.60;99.90;;;;;;5074442;28;20033;-75
2021/09/07 00:07:54;;;;;;;12.43;10.13;;;15.50;99.90;;;;;;5067333;28;20074;-76
2021/09/07 00:10:20;;;;;;;14.13;10.27;;;15.50;99.90;;;;;;5064119;28;20040;-75
2021/09/07 00:12:48;;;;;;;11.05;9.80;;;15.50;99.90;;;;;;5065360;28;20052;-73
2021/09/07 00:15:15;;;;;;;11.25;9.40;;;15.50;99.90;;;;;;5058280;28;20068;-73
2021/09/07 00:17:41;;;;;;;12.80;10.13;;;15.40;99.90;;;;;;5061368;28;20036;-73
2021/09/07 00:20:10;;;;;;;13.98;9.82;;;15.40;99.90;;;;;;5064210;28;20017;-77
2021/09/07 00:22:37;;;;;;;10.48;9.48;;;15.40;99.90;;;;;;5068068;28;20023;-75
2021/09/07 00:25:06;;;;;;;12.00;9.65;;;15.50;99.90;;;;;;5063882;28;20435;-74
2021/09/07 00:27:32;;;;;;;11.82;9.52;;;15.40;99.90;;;;;;5058501;28;20033;-74
2021/09/07 00:29:58;;;;;;;16.63;10.07;;;15.50;99.90;;;;;;5073715;28;20029;-75
2021/09/07 00:32:26;;;;;;;12.45;9.90;;;15.50;99.90;;;;;;5081393;28;20058;-78
2021/09/07 00:34:52;;;;;;;11.55;9.90;;;15.40;99.90;;;;;;5081657;28;20032;-77
2021/09/07 00:37:18;;;;;;;15.48;9.60;;;15.30;99.90;;;;;;5066323;28;20033;-75
2021/09/07 00:39:47;;;;;;;10.70;9.57;;;15.30;99.90;;;;;;5071114;28;20096;-75
2021/09/07 00:42:15;;;;;;;13.25;9.77;;;15.20;99.90;;;;;;5071482;28;20020;-77
2021/09/07 00:44:41;;;;;;;10.88;9.85;;;15.20;99.90;;;;;;5068283;28;20048;-76
2021/09/07 00:47:06;;;;;;;12.32;10.23;;;15.20;99.90;;;;;;5069591;28;20078;-76
2021/09/07 00:49:33;;;;;;;12.15;9.93;;;15.30;99.90;;;;;;5061058;28;20024;-76
2021/09/07 00:51:59;;;;;;;11.18;9.65;;;15.20;99.90;;;;;;5069066;28;20056;-76
2021/09/07 00:54:33;;;;;;;10.80;9.57;;;15.20;99.90;;;;;;5070545;28;20396;-76
2021/09/07 00:57:02;;;;;;;11.68;10.57;;;15.20;99.90;;;;;;5071185;28;20540;-75
2021/09/07 00:59:31;;;;;;;14.00;10.50;;;15.20;99.90;;;;;;5068603;28;20033;-76
2021/09/07 01:01:56;;;;;;;9.63;8.63;;;15.20;99.90;;;;;;5069982;28;20028;-76
2021/09/07 01:04:22;;;;;;;10.93;9.57;;;15.20;99.90;;;;;;5071190;28;20021;-76
2021/09/07 01:06:53;;;;;;;11.80;9.48;;;15.10;99.90;;;;;;5063650;28;20108;-76
2021/09/07 01:09:19;;;;;;;10.77;9.70;;;15.00;99.90;;;;;;5068608;28;20502;-76
2021/09/07 01:11:45;;;;;;;12.32;9.65;;;15.00;99.90;;;;;;5070863;28;20111;-76
2021/09/07 01:14:10;;;;;;;11.75;10.18;;;15.00;99.90;;;;;;5069552;28;20021;-75
2021/09/07 01:16:36;;;;;;;12.38;10.45;;;14.90;99.90;;;;;;5071150;28;20052;-76
2021/09/07 01:19:02;;;;;;;10.88;9.75;;;14.90;99.90;;;;;;5067670;28;20044;-76
2021/09/07 01:21:28;;;;;;;12.25;9.55;;;14.80;99.90;;;;;;5073668;28;20464;-76
2021/09/07 01:23:54;;;;;;;16.27;10.27;;;14.80;99.90;;;;;;5066515;28;20032;-78
2021/09/07 01:26:21;;;;;;;12.35;9.75;;;14.80;99.90;;;;;;5070660;28;20025;-76
2021/09/07 01:28:48;;;;;;;11.35;10.15;;;14.70;99.90;;;;;;5072294;28;20029;-75
2021/09/07 01:31:14;;;;;;;10.82;9.73;;;14.70;99.90;;;;;;5067676;28;20108;-74
2021/09/07 01:33:47;;;;;;;12.52;10.07;;;14.70;99.90;;;;;;5068398;28;20059;-76
2021/09/07 01:36:15;;;;;;;14.43;10.57;;;14.60;99.90;;;;;;5066866;28;20029;-76
2021/09/07 01:38:42;;;;;;;13.85;9.48;;;14.70;99.90;;;;;;5101008;28;20037;-76
2021/09/07 01:41:07;;;;;;;14.23;9.45;;;14.80;99.90;;;;;;5062154;28;20029;-74
2021/09/07 01:43:33;;;;;;;11.48;10.32;;;14.80;99.90;;;;;;5066046;28;20032;-75
2021/09/07 01:45:59;;;;;;;13.23;10.10;;;14.80;99.90;;;;;;5058982;28;20045;-75
2021/09/07 01:48:26;;;;;;;15.18;10.57;;;14.80;99.90;;;;;;5065512;28;20033;-77
2021/09/07 01:50:52;;;;;;;15.68;10.63;;;14.80;99.90;;;;;;5061774;28;20036;-75
2021/09/07 01:53:18;;;;;;;13.63;10.27;;;14.70;99.90;;;;;;5098210;28;20030;-75
2021/09/07 01:55:44;;;;;;;13.50;10.80;;;14.70;99.90;;;;;;5066565;28;20498;-76
2021/09/07 01:58:10;;;;;;;12.00;9.80;;;14.70;99.90;;;;;;5063633;28;20108;-74
2021/09/07 02:00:36;;;;;;;15.82;11.23;;;14.60;99.90;;;;;;5063449;28;20017;-76
2021/09/07 02:03:02;;;;;;;14.80;11.48;;;14.60;99.90;;;;;;5063687;28;20498;-76
2021/09/07 02:05:28;;;;;;;14.70;11.55;;;14.60;99.90;;;;;;5062508;28;20025;-76
2021/09/07 02:07:53;;;;;;;13.40;11.50;;;14.50;99.90;;;;;;5065186;28;20377;-76
2021/09/07 02:10:22;;;;;;;12.93;11.48;;;14.50;99.90;;;;;;5070896;28;20097;-75
2021/09/07 02:12:48;;;;;;;13.23;10.75;;;14.40;99.90;;;;;;5066574;28;20164;-75
2021/09/07 02:15:14;;;;;;;12.93;11.63;;;14.40;99.90;;;;;;5065528;28;20138;-80
2021/09/07 02:17:40;;;;;;;13.63;11.25;;;14.40;99.90;;;;;;5062405;28;20037;-76
2021/09/07 02:20:07;;;;;;;14.52;11.48;;;14.40;99.90;;;;;;5066278;28;20021;-76
2021/09/07 02:22:32;;;;;;;12.05;10.88;;;14.30;99.90;;;;;;5063042;28;20024;-76
2021/09/07 02:24:58;;;;;;;14.38;11.93;;;14.30;99.90;;;;;;5059051;28;20025;-75
2021/09/07 02:27:24;;;;;;;15.18;9.82;;;14.30;99.90;;;;;;5067304;28;20104;-76
2021/09/07 02:29:49;;;;;;;12.75;11.27;;;14.30;99.90;;;;;;5061106;28;20020;-75
2021/09/07 02:32:15;;;;;;;12.30;10.98;;;14.30;99.90;;;;;;5068049;28;20024;-76
2021/09/07 02:34:41;;;;;;;11.45;10.25;;;14.30;99.90;;;;;;5056644;28;20499;-75
2021/09/07 02:37:06;;;;;;;16.75;10.15;;;14.30;99.90;;;;;;5061860;28;20060;-77
2021/09/07 02:39:32;;;;;;;13.48;10.48;;;14.30;99.90;;;;;;5064253;28;20029;-76
2021/09/07 02:41:58;;;;;;;15.70;11.70;;;14.20;99.90;;;;;;5065127;28;20580;-75
2021/09/07 02:44:24;;;;;;;13.80;11.15;;;14.30;99.90;;;;;;5059520;28;20025;-76
2021/09/07 02:46:50;;;;;;;16.02;12.52;;;14.30;99.90;;;;;;5067326;28;20017;-77
2021/09/07 02:49:16;;;;;;;17.02;12.10;;;14.20;99.90;;;;;;5057107;28;20442;-75
2021/09/07 02:51:47;;;;;;;11.90;10.80;;;14.10;99.90;;;;;;5078531;28;20032;-74
2021/09/07 02:54:13;;;;;;;13.45;12.07;;;14.10;99.90;;;;;;5084626;28;20443;-74
2021/09/07 02:56:39;;;;;;;17.67;12.20;;;14.00;99.90;;;;;;5072013;28;20059;-75
2021/09/07 02:59:04;;;;;;;15.85;13.38;;;14.00;99.90;;;;;;5081095;28;20021;-76
2021/09/07 03:01:30;;;;;;;18.80;14.00;;;14.00;99.90;;;;;;5075609;28;20088;-75
2021/09/07 03:03:56;;;;;;;15.38;13.25;;;14.00;99.90;;;;;;5072236;28;20027;-74
2021/09/07 03:06:21;;;;;;;15.15;13.18;;;14.20;99.90;;;;;;5061842;28;20021;-75
2021/09/07 03:08:47;;;;;;;18.38;12.35;;;14.20;99.90;;;;;;5061617;28;20025;-76
2021/09/07 03:11:12;;;;;;;16.95;12.98;;;14.30;99.90;;;;;;5062237;28;20020;-76
2021/09/07 03:13:38;;;;;;;19.90;13.65;;;14.30;99.90;;;;;;5063391;28;20028;-76
2021/09/07 03:16:04;;;;;;;24.88;15.38;;;14.30;99.90;;;;;;5072540;28;20020;-76
2021/09/07 03:18:30;;;;;;;22.65;14.95;;;14.30;99.90;;;;;;5057991;28;20036;-75
2021/09/07 03:20:56;;;;;;;17.50;12.90;;;14.30;99.90;;;;;;5058805;28;20071;-76
2021/09/07 03:23:21;;;;;;;19.88;13.95;;;14.30;99.90;;;;;;5065577;28;20469;-76
2021/09/07 03:25:47;;;;;;;14.80;13.20;;;14.20;99.90;;;;;;5069033;28;20247;-75
2021/09/07 03:28:13;;;;;;;13.55;12.25;;;14.10;99.90;;;;;;5066393;28;20033;-75
2021/09/07 03:30:39;;;;;;;17.98;13.07;;;13.90;99.90;;;;;;5049418;28;20026;-75
2021/09/07 03:33:05;;;;;;;18.42;12.50;;;13.90;99.90;;;;;;5076966;28;20090;-75
2021/09/07 03:35:31;;;;;;;18.02;14.07;;;13.90;99.90;;;;;;5076408;28;20025;-76
2021/09/07 03:37:57;;;;;;;16.05;12.52;;;13.80;99.90;;;;;;5058334;28;20029;-74
2021/09/07 03:40:22;;;;;;;15.75;12.88;;;13.70;99.90;;;;;;5059655;28;20082;-75
2021/09/07 03:42:48;;;;;;;17.92;12.73;;;13.70;99.90;;;;;;5071589;28;20024;-76
2021/09/07 03:45:15;;;;;;;16.92;12.63;;;13.70;99.90;;;;;;5051247;28;20437;-75
2021/09/07 03:47:42;;;;;;;14.27;12.52;;;13.70;99.90;;;;;;5059984;28;20155;-74
2021/09/07 03:50:09;;;;;;;17.90;13.18;;;13.60;99.90;;;;;;5059629;28;20029;-77
2021/09/07 03:52:34;;;;;;;13.35;12.00;;;13.60;99.90;;;;;;5071602;28;20107;-75
2021/09/07 03:55:00;;;;;;;16.95;13.82;;;13.60;99.90;;;;;;5062001;28;20106;-76
2021/09/07 03:57:26;;;;;;;16.67;12.68;;;13.50;99.90;;;;;;5069890;28;20117;-76
2021/09/07 03:59:52;;;;;;;16.25;12.90;;;13.60;99.90;;;;;;5063826;28;20017;-76
2021/09/07 04:02:18;;;;;;;13.95;12.50;;;13.60;99.90;;;;;;5067572;28;20368;-75
2021/09/07 04:04:43;;;;;;;14.40;12.82;;;13.60;99.90;;;;;;5064491;28;20025;-76
2021/09/07 04:07:09;;;;;;;15.57;12.30;;;13.60;99.90;;;;;;5067268;28;20484;-75
2021/09/07 04:09:34;;;;;;;18.30;14.27;;;13.60;99.90;;;;;;5063797;28;20025;-76
2021/09/07 04:12:00;;;;;;;18.15;12.18;;;13.60;99.90;;;;;;5057464;28;20531;-76
2021/09/07 04:14:25;;;;;;;19.85;13.38;;;13.60;99.90;;;;;;5063364;28;20099;-76
2021/09/07 04:16:51;;;;;;;20.52;12.25;;;13.60;99.90;;;;;;5063486;28;20450;-75
2021/09/07 04:19:18;;;;;;;20.10;12.15;;;13.60;99.90;;;;;;5061498;28;20112;-76
2021/09/07 04:21:44;;;;;;;22.25;12.13;;;13.60;99.90;;;;;;5063085;28;20070;-76
2021/09/07 04:24:10;;;;;;;15.60;13.02;;;13.60;99.90;;;;;;5064715;28;20017;-75
2021/09/07 04:26:35;;;;;;;13.43;12.05;;;13.60;99.90;;;;;;5061334;28;20036;-75
2021/09/07 04:29:01;;;;;;;16.42;12.82;;;13.50;99.90;;;;;;5070493;28;20381;-76
2021/09/07 04:31:26;;;;;;;14.27;12.77;;;13.60;99.90;;;;;;5081020;28;20052;-76
2021/09/07 04:33:52;;;;;;;19.80;13.68;;;13.50;99.90;;;;;;5064809;28;20113;-76
2021/09/07 04:36:17;;;;;;;16.17;13.30;;;13.60;99.90;;;;;;5065947;28;20029;-75
2021/09/07 04:38:43;;;;;;;23.33;13.35;;;13.70;99.90;;;;;;5063316;28;20077;-76
2021/09/07 04:41:09;;;;;;;15.55;12.23;;;13.70;99.90;;;;;;5073936;28;20021;-76
2021/09/07 04:43:35;;;;;;;18.48;12.55;;;13.60;99.90;;;;;;5066053;28;20025;-76
2021/09/07 04:46:00;;;;;;;14.55;12.43;;;13.70;99.90;;;;;;5065163;28;20027;-75
2021/09/07 04:48:26;;;;;;;15.93;12.68;;;13.70;99.90;;;;;;5063382;28;20539;-75
2021/09/07 04:50:52;;;;;;;18.83;11.73;;;13.60;99.90;;;;;;5062014;28;20036;-76
2021/09/07 04:53:17;;;;;;;16.48;12.43;;;13.60;99.90;;;;;;5067308;28;20502;-76
2021/09/07 04:55:43;;;;;;;13.35;12.02;;;13.60;99.90;;;;;;5065549;28;20025;-76
2021/09/07 04:58:08;;;;;;;12.88;11.30;;;13.60;99.90;;;;;;5061430;28;20085;-77
2021/09/07 05:00:34;;;;;;;16.25;11.98;;;13.60;99.90;;;;;;5066638;28;20036;-76
2021/09/07 05:03:00;;;;;;;17.63;12.73;;;13.60;99.90;;;;;;5073781;28;20221;-77
2021/09/07 05:05:25;;;;;;;16.73;12.32;;;13.60;99.90;;;;;;5081704;28;20025;-77
2021/09/07 05:07:51;;;;;;;17.55;12.45;;;13.60;99.90;;;;;;5088614;28;20033;-75
2021/09/07 05:10:17;;;;;;;15.65;12.85;;;13.60;99.90;;;;;;5085176;28;20049;-75
2021/09/07 05:12:42;;;;;;;15.27;12.40;;;13.60;99.90;;;;;;5087248;28;20024;-76
2021/09/07 05:15:08;;;;;;;13.10;11.80;;;13.70;99.90;;;;;;5093138;28;20017;-74
2021/09/07 05:17:34;;;;;;;20.95;12.80;;;13.70;99.90;;;;;;5089631;28;20031;-74
2021/09/07 05:20:00;;;;;;;19.38;14.05;;;13.80;99.90;;;;;;5087471;28;20036;-74
2021/09/07 05:22:26;;;;;;;19.17;12.95;;;13.90;99.90;;;;;;5089890;28;20014;-73
2021/09/07 05:24:51;;;;;;;17.08;12.38;;;13.90;99.90;;;;;;5090627;28;20047;-73
2021/09/07 05:27:17;;;;;;;17.27;12.40;;;13.90;99.90;;;;;;5090453;28;20059;-74
2021/09/07 05:29:42;;;;;;;17.50;12.45;;;14.00;99.90;;;;;;5085996;28;20089;-74
2021/09/07 05:32:10;;;;;;;17.30;12.98;;;14.00;99.90;;;;;;5090699;28;20024;-74
2021/09/07 05:34:36;;;;;;;19.15;13.05;;;14.00;99.90;;;;;;5083341;28;20052;-74
2021/09/07 05:37:02;;;;;;;17.33;12.10;;;14.10;99.90;;;;;;5088620;28;20021;-76
2021/09/07 05:39:27;;;;;;;13.25;11.35;;;14.30;99.90;;;;;;5068847;28;20025;-77
2021/09/07 05:41:53;;;;;;;18.95;12.85;;;14.40;99.90;;;;;;5066374;28;20016;-76
2021/09/07 05:44:20;;;;;;;14.98;11.82;;;14.40;99.90;;;;;;5067267;28;20089;-76
2021/09/07 05:46:46;;;;;;;16.20;11.65;;;14.50;99.90;;;;;;5066134;28;20021;-76
2021/09/07 05:49:11;;;;;;;17.55;12.05;;;14.70;99.90;;;;;;5087264;28;20047;-75
2021/09/07 05:51:37;;;;;;;13.82;11.60;;;14.80;99.90;;;;;;5086574;28;20013;-74
2021/09/07 05:54:02;;;;;;;15.10;12.38;;;14.80;99.90;;;;;;5086778;28;20039;-73
2021/09/07 05:56:28;;;;;;;13.70;11.80;;;14.80;99.90;;;;;;5088549;28;20037;-73
2021/09/07 05:58:56;;;;;;;17.15;11.18;;;14.90;99.90;;;;;;5086011;28;20028;-75
2021/09/07 06:01:21;;;;;;;12.55;11.38;;;14.90;99.90;;;;;;5087963;28;20013;-73
2021/09/07 06:03:47;;;;;;;15.05;11.98;;;15.10;99.90;;;;;;5093075;28;20024;-74
2021/09/07 06:06:13;;;;;;;12.98;11.32;;;15.20;99.90;;;;;;5088819;28;20016;-73
2021/09/07 06:08:38;;;;;;;12.00;10.80;;;15.10;99.90;;;;;;5089258;28;20032;-74
2021/09/07 06:11:04;;;;;;;14.55;11.48;;;15.10;99.90;;;;;;5075532;28;20025;-76
2021/09/07 06:13:31;;;;;;;12.70;11.30;;;15.20;99.90;;;;;;5067628;28;20307;-75
2021/09/07 06:15:57;;;;;;;13.50;11.63;;;15.20;99.90;;;;;;5063917;28;20013;-76
2021/09/07 06:18:23;;;;;;;15.10;11.27;;;15.00;99.90;;;;;;5066128;28;20074;-75
2021/09/07 06:20:48;;;;;;;13.15;11.15;;;15.20;99.90;;;;;;5102448;28;20119;-75
2021/09/07 06:23:16;;;;;;;19.67;12.38;;;15.40;99.90;;;;;;5063754;28;20028;-77
2021/09/07 06:25:42;;;;;;;15.93;10.98;;;15.60;99.90;;;;;;5059301;28;20391;-76
2021/09/07 06:28:08;;;;;;;14.82;12.43;;;15.70;99.90;;;;;;5058221;28;20032;-76
2021/09/07 06:30:33;;;;;;;12.88;11.27;;;15.80;99.90;;;;;;5064278;28;20036;-76
2021/09/07 06:32:59;;;;;;;14.30;11.25;;;15.90;99.90;;;;;;5065347;28;20029;-75
2021/09/07 06:35:25;;;;;;;16.73;10.55;;;15.90;99.90;;;;;;5067528;28;20095;-76
2021/09/07 06:37:50;;;;;;;13.63;11.05;;;15.80;99.90;;;;;;5056476;28;20441;-77
2021/09/07 06:40:16;;;;;;;14.38;12.05;;;16.00;99.90;;;;;;5064592;28;20441;-76
2021/09/07 06:42:41;;;;;;;15.85;11.13;;;15.90;99.90;;;;;;5060866;28;20033;-75
2021/09/07 06:45:07;;;;;;;17.13;11.25;;;15.70;99.90;;;;;;5059985;28;20027;-75
2021/09/07 06:47:33;;;;;;;16.23;11.32;;;15.70;99.90;;;;;;5060345;28;20035;-75
2021/09/07 06:50:01;;;;;;;16.25;14.27;;;15.70;99.90;;;;;;5061067;28;20025;-76
2021/09/07 06:52:28;;;;;;;15.00;11.75;;;15.70;99.90;;;;;;5097107;28;20040;-76
2021/09/07 06:54:53;;;;;;;14.35;10.85;;;16.10;99.90;;;;;;5059307;28;20489;-76
2021/09/07 06:57:19;;;;;;;13.10;11.02;;;16.40;99.90;;;;;;5062812;28;20075;-77
2021/09/07 06:59:44;;;;;;;14.20;10.30;;;16.60;99.90;;;;;;5065510;28;20021;-77
2021/09/07 07:02:10;;;;;;;15.27;12.00;;;16.90;99.90;;;;;;5069107;28;20028;-76
2021/09/07 07:04:35;;;;;;;14.13;11.40;;;17.20;99.90;;;;;;5059230;28;20421;-77
2021/09/07 07:07:01;;;;;;;16.45;9.93;;;17.40;99.90;;;;;;5065469;28;20095;-75
2021/09/07 07:09:26;;;;;;;14.90;10.93;;;17.50;99.90;;;;;;5061929;28;20025;-76
2021/09/07 07:11:52;;;;;;;14.05;10.77;;;17.60;99.90;;;;;;5047249;28;20051;-76
2021/09/07 07:14:21;;;;;;;12.85;10.85;;;17.80;99.90;;;;;;5052176;28;20031;-77
2021/09/07 07:16:47;;;;;;;15.90;10.48;;;17.70;99.90;;;;;;5063550;28;20483;-76
2021/09/07 07:19:13;;;;;;;12.57;10.60;;;17.40;99.90;;;;;;5057138;28;20036;-76
2021/09/07 07:21:38;;;;;;;16.92;10.98;;;17.80;99.90;;;;;;5063687;28;20028;-76
2021/09/07 07:24:04;;;;;;;17.17;11.02;;;18.10;99.90;;;;;;5056767;28;20082;-76
2021/09/07 07:26:30;;;;;;;12.15;10.95;;;18.30;99.90;;;;;;5058640;28;20036;-75
2021/09/07 07:28:55;;;;;;;11.90;10.63;;;18.30;99.90;;;;;;5092202;28;20063;-76
2021/09/07 07:31:21;;;;;;;11.35;10.25;;;18.20;99.90;;;;;;5060467;28;20033;-77
2021/09/07 07:33:46;;;;;;;14.70;11.10;;;18.20;99.90;;;;;;5062429;28;20028;-76
2021/09/07 07:36:12;;;;;;;13.10;10.40;;;18.20;99.90;;;;;;5058116;28;20127;-76
2021/09/07 07:38:38;;;;;;;14.98;11.35;;;18.20;99.90;;;;;;5052197;28;20116;-76
2021/09/07 07:41:03;;;;;;;15.82;11.02;;;18.30;99.90;;;;;;5050000;28;20436;-76
2021/09/07 07:43:33;;;;;;;11.30;10.07;;;18.30;99.90;;;;;;5053375;28;20060;-75
2021/09/07 07:45:58;;;;;;;14.38;11.00;;;18.40;99.90;;;;;;5062607;28;20025;-75
2021/09/07 07:48:24;;;;;;;12.18;10.75;;;18.80;99.90;;;;;;5060831;28;20091;-76
2021/09/07 07:50:50;;;;;;;13.20;11.13;;;18.80;99.90;;;;;;5063090;28;20020;-76
2021/09/07 07:53:15;;;;;;;12.75;10.55;;;18.80;99.90;;;;;;5061538;28;20503;-76
2021/09/07 07:55:41;;;;;;;16.98;10.52;;;18.80;99.90;;;;;;5063266;28;20082;-75
2021/09/07 07:58:06;;;;;;;13.32;10.05;;;18.80;99.90;;;;;;5060540;28;20074;-76
2021/09/07 08:00:32;;;;;;;12.85;10.15;;;18.60;99.90;;;;;;5065491;28;20441;-75
2021/09/07 08:02:57;;;;;;;16.13;11.25;;;18.40;99.90;;;;;;5061878;28;20087;-76
2021/09/07 08:05:23;;;;;;;13.65;10.32;;;18.80;99.90;;;;;;5064981;28;20116;-76
2021/09/07 08:07:48;;;;;;;11.30;9.93;;;19.10;99.90;;;;;;5069389;28;20036;-77
2021/09/07 08:10:14;;;;;;;17.13;9.52;;;19.30;99.90;;;;;;5063028;28;20032;-76
2021/09/07 08:12:41;;;;;;;16.25;11.05;;;19.70;99.90;;;;;;5065220;28;20405;-76
2021/09/07 08:15:07;;;;;;;13.27;10.55;;;19.90;99.90;;;;;;5061868;28;20025;-76
2021/09/07 08:17:32;;;;;;;13.90;10.65;;;19.90;99.90;;;;;;5063824;28;20491;-76
2021/09/07 08:19:58;;;;;;;13.90;10.23;;;20.10;99.90;;;;;;5060595;28;20051;-76
2021/09/07 08:22:24;;;;;;;12.25;9.73;;;20.10;99.90;;;;;;5056348;28;20036;-76
2021/09/07 08:24:49;;;;;;;13.00;10.23;;;20.30;99.90;;;;;;5060030;28;20017;-76
2021/09/07 08:27:16;;;;;;;12.15;9.43;;;20.50;99.90;;;;;;5062642;28;20094;-75
2021/09/07 08:29:41;;;;;;;15.82;11.07;;;20.50;99.90;;;;;;5063321;28;20036;-77
2021/09/07 08:32:07;;;;;;;15.45;10.27;;;20.60;99.90;;;;;;5065268;28;20029;-76
2021/09/07 08:34:33;;;;;;;12.13;10.85;;;20.60;99.90;;;;;;5062346;28;20528;-76
2021/09/07 08:36:58;;;;;;;14.90;9.85;;;20.70;99.90;;;;;;5066841;28;20044;-77
2021/09/07 08:39:24;;;;;;;14.05;11.90;;;20.60;99.90;;;;;;5067837;28;20365;-77
2021/09/07 08:41:50;;;;;;;10.73;9.63;;;20.70;99.90;;;;;;5062025;28;20096;-75
2021/09/07 08:44:20;;;;;;;14.90;10.30;;;20.70;99.90;;;;;;5060963;28;20028;-74
2021/09/07 08:46:46;;;;;;;13.77;9.90;;;20.80;99.90;;;;;;5062748;28;20013;-76
2021/09/07 08:49:13;;;;;;;11.63;9.77;;;20.90;99.90;;;;;;5063364;28;20025;-76
2021/09/07 08:51:39;;;;;;;15.95;10.32;;;20.80;99.90;;;;;;5034344;28;20104;-76
2021/09/07 08:54:05;;;;;;;12.27;11.00;;;21.00;99.90;;;;;;5092838;28;20544;-78
2021/09/07 08:56:30;;;;;;;13.70;10.70;;;21.00;99.90;;;;;;5067232;28;20537;-76
2021/09/07 08:58:56;;;;;;;11.43;10.32;;;21.00;99.90;;;;;;5063865;28;20055;-76
2021/09/07 09:01:21;;;;;;;13.48;10.15;;;21.20;99.90;;;;;;5071254;28;20020;-77
2021/09/07 09:03:48;;;;;;;10.60;9.50;;;21.40;99.90;;;;;;5065466;28;20025;-77
2021/09/07 09:06:25;;;;;;;11.65;9.93;;;21.50;99.90;;;;;;5069933;28;20074;-77
2021/09/07 09:09:04;;;;;;;14.18;9.75;;;21.90;99.90;;;;;;5065035;28;20074;-75
2021/09/07 09:11:51;;;;;;;13.50;10.38;;;22.10;99.90;;;;;;5072069;28;20098;-77
2021/09/07 09:14:40;;;;;;;11.05;9.05;;;22.00;99.90;;;;;;5062359;28;20419;-76
2021/09/07 09:17:21;;;;;;;10.15;8.98;;;21.80;99.90;;;;;;5054509;28;20087;-75
2021/09/07 09:19:55;;;;;;;12.80;9.82;;;21.90;99.90;;;;;;5062837;28;20075;-76
2021/09/07 09:22:38;;;;;;;10.50;9.00;;;22.00;99.90;;;;;;5053778;28;20599;-77
2021/09/07 09:25:04;;;;;;;9.25;8.35;;;22.20;99.90;;;;;;5059892;28;20021;-78
2021/09/07 09:27:29;;;;;;;10.13;8.45;;;22.40;99.90;;;;;;5067759;28;20122;-77
2021/09/07 09:29:55;;;;;;;9.40;8.43;;;22.20;99.90;;;;;;5065786;28;20427;-76
2021/09/07 09:32:24;;;;;;;10.27;8.00;;;22.40;99.90;;;;;;5064836;28;20377;-77
2021/09/07 09:34:50;;;;;;;10.77;8.30;;;22.40;99.90;;;;;;5056904;28;20465;-78
2021/09/07 09:37:16;;;;;;;8.40;7.60;;;22.30;99.90;;;;;;5060830;28;20082;-77
2021/09/07 09:39:46;;;;;;;12.00;7.63;;;22.40;99.90;;;;;;5077252;28;20031;-76
2021/09/07 09:42:15;;;;;;;9.45;7.85;;;22.80;99.90;;;;;;5062596;28;20021;-76
2021/09/07 09:44:40;;;;;;;9.98;7.55;;;22.80;99.90;;;;;;5047607;28;20021;-78
2021/09/07 09:47:06;;;;;;;11.30;7.47;;;22.90;99.90;;;;;;5070108;28;20016;-76
2021/09/07 09:49:32;;;;;;;9.77;7.80;;;22.90;99.90;;;;;;5064417;28;20033;-77
2021/09/07 09:52:07;;;;;;;8.57;7.40;;;23.10;99.90;;;;;;5059200;28;20027;-77
2021/09/07 09:54:34;;;;;;;9.25;6.85;;;23.00;99.90;;;;;;5056424;28;20025;-75
2021/09/07 09:57:02;;;;;;;8.55;7.72;;;23.40;99.90;;;;;;5065140;28;20020;-76
2021/09/07 09:59:28;;;;;;;8.07;7.25;;;23.60;99.90;;;;;;5065825;28;20378;-76
2021/09/07 10:01:55;;;;;;;8.95;8.05;;;23.60;99.90;;;;;;5064024;28;20471;-76
2021/09/07 10:04:21;;;;;;;7.55;6.75;;;23.70;99.90;;;;;;5065855;28;20095;-76
2021/09/07 10:06:52;;;;;;;8.68;7.43;;;24.00;99.40;;;;;;5064966;28;20017;-76
2021/09/07 10:09:22;;;;;;;;;;;23.70;99.70;;;;;;5069096;28;20027;-76
2021/09/07 10:11:57;;;;;;;8.38;6.35;;;23.90;99.10;;;;;;5066281;28;19904;-76
2021/09/07 10:14:27;;;;;;;8.55;6.28;;;23.70;99.90;;;;;;5069599;28;20391;-76
2021/09/07 10:17:34;;;;;;;6.75;5.75;;;23.80;98.20;;;;;;5056862;28;20425;-76
2021/09/07 10:20:46;;;;;;;7.35;5.85;;;23.90;96.90;;;;;;5055007;28;20078;-76
2021/09/07 10:23:09;;;;;;;7.10;6.35;;;24.20;96.40;;;;;;5052715;28;20029;-78
2021/09/07 10:26:01;;;;;;;7.50;6.80;;;24.40;95.40;;;;;;5066021;28;20051;-75
2021/09/07 10:28:42;;;;;;;8.25;6.18;;;24.40;95.80;;;;;;5063396;28;20044;-78
2021/09/07 10:31:16;;;;;;;8.13;6.10;;;24.50;95.00;;;;;;5067378;28;20029;-75
2021/09/07 10:33:58;;;;;;;9.32;6.43;;;24.60;93.90;;;;;;5052879;28;20035;-76
2021/09/07 10:36:26;;;;;;;6.68;6.03;;;24.50;93.60;;;;;;5063948;28;20047;-75
2021/09/07 10:38:54;;;;;;;7.03;6.40;;;24.30;94.20;;;;;;5069698;28;20039;-77
2021/09/07 10:41:29;;;;;;;6.65;5.80;;;24.70;93.00;;;;;;5064437;28;20026;-75
2021/09/07 10:44:00;;;;;;;7.13;5.47;;;24.80;92.70;;;;;;5070383;28;20020;-75
2021/09/07 10:46:56;;;;;;;6.65;6.05;;;25.10;91.60;;;;;;5066288;28;20113;-76
2021/09/07 10:49:33;;;;;;;6.88;6.18;;;25.00;90.90;;;;;;5062604;28;20052;-75
2021/09/07 10:52:09;;;;;;;6.90;5.60;;;25.00;91.60;;;;;;5056729;28;20033;-77
2021/09/07 10:54:58;;;;;;;8.25;7.13;;;24.90;92.30;;;;;;5059236;28;20025;-76
2021/09/07 10:57:36;;;;;;;7.25;6.15;;;25.00;92.00;;;;;;5060361;28;20029;-76
2021/09/07 11:00:13;;;;;;;7.47;5.68;;;25.40;91.30;;;;;;5064620;28;20485;-75
2021/09/07 11:02:43;;;;;;;6.65;5.88;;;25.40;91.00;;;;;;5057307;28;20025;-75
2021/09/07 11:05:10;;;;;;;7.70;7.00;;;25.40;91.80;;;;;;5063578;28;20028;-76
2021/09/07 11:07:39;;;;;;;6.35;5.72;;;25.70;91.80;;;;;;5064193;28;20104;-76
2021/09/07 11:10:05;;;;;;;7.30;5.95;;;25.40;92.30;;;;;;5057612;28;20104;-76
2021/09/07 11:12:33;;;;;;;6.72;6.13;;;25.70;91.60;;;;;;5059264;28;20028;-75
2021/09/07 11:15:04;;;;;;;6.78;6.18;;;25.80;92.10;;;;;;5057918;28;20023;-77
2021/09/07 11:17:30;;;;;;;7.15;6.38;;;25.80;91.70;;;;;;5066156;28;20025;-74
2021/09/07 11:20:07;;;;;;;7.93;6.00;;;25.80;92.00;;;;;;5068345;28;20055;-76
2021/09/07 11:22:34;;;;;;;6.78;5.97;;;26.00;91.10;;;;;;5072620;28;20653;-76
2021/09/07 11:25:04;;;;;;;6.78;6.15;;;26.10;91.10;;;;;;5058329;28;20028;-76
2021/09/07 11:27:59;;;;;;;7.65;6.30;;;25.90;90.40;;;;;;5051992;28;20094;-77
2021/09/07 11:30:27;;;;;;;8.10;5.03;;;25.60;91.50;;;;;;5060752;28;20085;-76
2021/09/07 11:33:20;;;;;;;6.15;5.43;;;25.60;91.50;;;;;;5066006;28;20035;-77
2021/09/07 11:35:57;;;;;;;10.00;6.60;;;25.60;91.20;;;;;;5059900;28;20039;-75
2021/09/07 11:38:25;;;;;;;6.30;5.70;;;25.70;90.80;;;;;;5056411;28;20033;-76
2021/09/07 11:40:59;;;;;;;6.43;5.82;;;26.10;90.70;;;;;;5063107;28;20013;-74
2021/09/07 11:43:47;;;;;;;6.10;5.50;;;26.20;90.30;;;;;;5059519;28;20025;-75
2021/09/07 11:46:30;;;;;;;6.85;5.70;;;26.20;90.00;;;;;;5061409;28;20024;-76
2021/09/07 11:49:22;;;;;;;6.53;5.93;;;26.40;88.00;;;;;;5062743;28;20029;-77
2021/09/07 11:51:53;;;;;;;6.22;5.72;;;26.40;87.00;;;;;;5048577;28;20033;-76
2021/09/07 11:54:19;;;;;;;7.70;6.38;;;26.20;89.10;;;;;;5084425;28;20423;-75
2021/09/07 11:56:55;;;;;;;5.85;5.35;;;26.30;88.80;;;;;;5071948;28;20083;-76
2021/09/07 11:59:20;;;;;;;7.57;5.95;;;26.20;89.00;;;;;;5032660;28;20022;-77
2021/09/07 12:01:51;;;;;;;6.70;6.03;;;26.20;88.40;;;;;;5035371;28;20029;-76
2021/09/07 12:04:18;;;;;;;7.35;5.90;;;25.80;89.90;;;;;;5062347;28;20025;-76
2021/09/07 12:06:46;;;;;;;6.30;5.68;;;25.80;90.00;;;;;;5061118;28;20115;-76
2021/09/07 12:09:16;;;;;;;6.38;5.80;;;26.30;89.70;;;;;;5063971;28;20086;-77
2021/09/07 12:11:44;;;;;;;6.72;6.00;;;26.50;87.50;;;;;;5070003;28;20107;-77
2021/09/07 12:14:12;;;;;;;7.35;5.10;;;26.20;88.00;;;;;;5064068;28;20024;-76
2021/09/07 12:16:57;;;;;;;8.27;5.05;;;26.10;87.30;;;;;;5067384;28;20388;-77
2021/09/07 12:19:28;;;;;;;5.30;4.70;;;26.50;84.20;;;;;;5067087;28;20077;-76
2021/09/07 12:22:19;;;;;;;5.43;4.90;;;26.60;80.50;;;;;;5065215;28;20025;-76
2021/09/07 12:25:05;;;;;;;5.70;5.10;;;26.70;81.50;;;;;;5080113;28;20009;-76
2021/09/07 12:27:39;;;;;;;11.65;5.53;;;26.60;82.90;;;;;;5088672;28;20562;-75
2021/09/07 12:30:11;;;;;;;6.03;5.25;;;26.50;83.50;;;;;;5074801;28;20080;-75
2021/09/07 12:33:07;;;;;;;6.72;5.50;;;26.50;83.40;;;;;;5088295;28;20005;-76
2021/09/07 12:35:37;;;;;;;6.75;5.32;;;26.60;81.70;;;;;;5093146;28;20047;-75
2021/09/07 12:38:09;;;;;;;6.18;5.55;;;26.60;83.40;;;;;;5076921;28;20044;-76